Montreal Mirabel, Quebec

2:14 PM EST on February 09, 2016 (GMT -0500)
Montreal International (Mirabel) | | Change Station
CLOSE
Current Station
Airport
Location: Montreal Mirabel,
Elevation: 269 ft
Nearby Weather Stations

Elev 269 ft 45.68 °N, 74.04 °W | Updated 14 minutes ago

Light Snow
Light Snow Low Drifting Snow
19 °F
Feels Like 9 °F
N
9
Wind Variable Wind from ENE

Today is forecast to be nearly the same temperature as yesterday.

Today
High -- | Low -- °F
--% Chance of Precip.
Yesterday
High -- | Low -- °F
Precip. -- in
Pressure 29.64 in
Visibility 5.0 miles
Clouds Mostly Cloudy 2900 ft
Overcast 4000 ft
Windchill 9 °F
Dew Point 14 °F
Humidity 80%
Rainfall 0.00 in
Snow Depth Not available.
7:07 AM 5:13 PM
New Moon, 2% visible
METAR CYMX 091900Z 06008KT 020V090 5SM -SN DRSN BKN029 OVC040 M07/M10 A2962 RMK SC5SC3 SLP037
Pressure 29.64 in
Visibility 5.0 miles
Clouds Mostly Cloudy 2900 ft
Overcast 4000 ft
Windchill 9 °F
Dew Point 14 °F
Humidity 80%
Rainfall 0.00 in
Snow Depth Not available.
7:07 AM 5:13 PM
New Moon, 2% visible
METAR CYMX 091900Z 06008KT 020V090 5SM -SN DRSN BKN029 OVC040 M07/M10 A2962 RMK SC5SC3 SLP037

10-Day Weather Forecast

Almanac

Astronomy

Feb. 09, 2016 Rise Set
Actual Time
Civil Twilight
Nautical Twilight
Astronomical Twilight
Moon
Length of Visible Light
Length of Day
Tomorrow will be .
, % of the Moon is Illuminated

Today's Extremes

Country Highs Country Lows

Community

WunderPhotos

Upload Photos

1,891,666 photos uploaded!

WunderBlog® & News

Nearby

Air Quality

  Air Quality AQ Index Pollutant
Not available.

Snow Depth

Station Depth Elevation

Earthquake Activity

City Distance Mag. Time & Date
Minimum magnitude displayed is 2.5.

Coastal Water Temperatures

Place Temperature

Stations

Nearby Weather Stations

Station Location Temp. Windchill Dew Point Humidity Wind Precip. Elev Updated Type
                   

Watches & Warnings

There are currently no watches in effect.